createdAt,value
2023-11-01T00:01:49.097Z,0.55
2023-11-01T00:04:15.844Z,1.25
2023-11-01T00:06:42.506Z,1.75
2023-11-01T00:09:09.347Z,1.83
2023-11-01T00:11:35.997Z,1.80
2023-11-01T00:14:03.830Z,0.98
2023-11-01T00:16:30.499Z,0.82
2023-11-01T00:18:57.099Z,0.82
2023-11-01T00:21:23.711Z,1.35
2023-11-01T00:23:50.927Z,1.50
2023-11-01T00:26:17.848Z,1.67
2023-11-01T00:28:44.448Z,1.00
2023-11-01T00:31:11.061Z,2.92
2023-11-01T00:33:37.773Z,1.63
2023-11-01T00:36:05.124Z,1.60
2023-11-01T00:38:36.747Z,0.52
2023-11-01T00:41:04.363Z,1.10
2023-11-01T00:43:31.624Z,2.30
2023-11-01T00:45:58.702Z,2.65
2023-11-01T00:48:25.410Z,3.25
2023-11-01T00:50:52.036Z,0.50
2023-11-01T00:53:18.676Z,1.60
2023-11-01T00:55:45.270Z,2.58
2023-11-01T00:58:11.823Z,0.75
2023-11-01T01:00:38.502Z,0.80
2023-11-01T01:03:05.273Z,1.33
2023-11-01T01:05:31.973Z,0.52
2023-11-01T01:07:58.658Z,1.13
2023-11-01T01:10:25.235Z,2.60
2023-11-01T01:12:51.849Z,0.82
2023-11-01T01:15:18.515Z,0.90
2023-11-01T01:17:45.511Z,1.05
2023-11-01T01:20:12.468Z,0.65
2023-11-01T01:22:39.161Z,2.97
2023-11-01T01:25:06.414Z,0.98
2023-11-01T01:27:33.030Z,0.95
2023-11-01T01:29:59.710Z,1.42
2023-11-01T01:32:26.539Z,1.60
2023-11-01T01:34:53.303Z,1.17
2023-11-01T01:37:19.909Z,2.17
2023-11-01T01:39:46.494Z,2.58
2023-11-01T01:42:14.664Z,0.75
2023-11-01T01:44:41.455Z,2.05
2023-11-01T01:47:09.031Z,0.68
2023-11-01T01:49:40.242Z,1.48
2023-11-01T01:52:12.616Z,1.05
2023-11-01T01:54:39.528Z,0.60
2023-11-01T01:57:06.604Z,0.70
2023-11-01T01:59:33.522Z,1.48
2023-11-01T02:02:01.050Z,0.55
2023-11-01T02:04:28.081Z,2.35
2023-11-01T02:06:54.836Z,0.50
2023-11-01T02:09:21.464Z,1.63
2023-11-01T02:11:48.118Z,1.23
2023-11-01T02:14:15.011Z,2.33
2023-11-01T02:16:41.807Z,0.82
2023-11-01T02:19:09.933Z,1.33
2023-11-01T02:21:37.293Z,0.50
2023-11-01T02:24:07.420Z,1.40
2023-11-01T02:26:34.316Z,1.40
2023-11-01T02:29:01.028Z,1.95
2023-11-01T02:31:27.796Z,1.23
2023-11-01T02:33:55.023Z,1.90
2023-11-01T02:36:21.723Z,0.13
2023-11-01T02:38:48.407Z,0.00
2023-11-01T02:41:15.801Z,1.13
2023-11-01T02:43:42.720Z,1.33
2023-11-01T02:46:09.514Z,0.90
2023-11-01T02:48:36.223Z,3.22
2023-11-01T02:51:03.065Z,2.45
2023-11-01T02:53:29.732Z,1.73
2023-11-01T02:55:56.417Z,1.10
2023-11-01T02:58:25.284Z,1.15
2023-11-01T03:00:52.082Z,0.80
2023-11-01T03:03:19.274Z,1.42
2023-11-01T03:05:46.114Z,3.00
2023-11-01T03:08:12.863Z,2.13
2023-11-01T03:10:39.544Z,2.80
2023-11-01T03:13:06.227Z,2.50
2023-11-01T03:15:32.935Z,1.27
2023-11-01T03:17:59.751Z,2.88
2023-11-01T03:20:26.601Z,2.38
2023-11-01T03:22:53.288Z,1.30
2023-11-01T03:25:20.021Z,1.95
2023-11-01T03:27:46.665Z,1.23
2023-11-01T03:30:13.425Z,1.67
2023-11-01T03:32:40.855Z,2.75
2023-11-01T03:35:08.171Z,2.28
2023-11-01T03:37:34.877Z,1.42
2023-11-01T03:40:01.725Z,1.92
2023-11-01T03:42:28.361Z,3.05
2023-11-01T03:44:55.010Z,1.42
2023-11-01T03:47:21.772Z,1.17
2023-11-01T03:49:48.498Z,2.38
2023-11-01T03:52:15.172Z,0.50
2023-11-01T03:54:42.185Z,1.63
2023-11-01T03:57:08.816Z,0.40
2023-11-01T03:59:35.681Z,1.85
2023-11-01T04:02:02.431Z,2.15
2023-11-01T04:04:29.423Z,1.23
2023-11-01T04:06:56.276Z,0.75
2023-11-01T04:09:23.084Z,1.80
2023-11-01T04:11:49.837Z,1.02
2023-11-01T04:14:16.638Z,1.25
2023-11-01T04:16:43.320Z,0.90
2023-11-01T04:19:12.640Z,0.60
2023-11-01T04:21:39.733Z,1.52
2023-11-01T04:24:06.708Z,4.68
2023-11-01T04:26:35.033Z,1.67
2023-11-01T04:29:01.810Z,1.17
2023-11-01T04:31:28.928Z,1.98
2023-11-01T04:33:55.869Z,2.65
2023-11-01T04:36:28.446Z,2.42
2023-11-01T04:38:56.527Z,1.48
2023-11-01T04:41:29.064Z,1.55
2023-11-01T04:43:56.824Z,1.40
2023-11-01T04:46:23.915Z,3.45
2023-11-01T04:48:51.339Z,1.60
2023-11-01T04:51:18.532Z,1.17
2023-11-01T04:53:45.963Z,1.60
2023-11-01T04:56:12.702Z,0.98
2023-11-01T04:58:39.569Z,1.20
2023-11-01T05:01:06.683Z,1.08
2023-11-01T05:03:36.343Z,1.02
2023-11-01T05:06:03.544Z,4.55
2023-11-01T05:08:30.506Z,1.52
2023-11-01T05:10:57.193Z,1.30
2023-11-01T05:13:23.826Z,2.70
2023-11-01T05:15:50.648Z,1.05
2023-11-01T05:18:17.342Z,1.77
2023-11-01T05:20:44.768Z,1.63
2023-11-01T05:23:11.516Z,1.73
2023-11-01T05:25:38.202Z,1.73
2023-11-01T05:28:04.990Z,0.88
2023-11-01T05:30:31.946Z,0.82
2023-11-01T05:32:58.739Z,1.33
2023-11-01T05:35:25.504Z,1.35
2023-11-01T05:37:53.338Z,1.05
2023-11-01T05:40:20.162Z,0.85
2023-11-01T05:42:47.895Z,0.80
2023-11-01T05:45:18.606Z,1.98
2023-11-01T05:47:53.682Z,1.17
2023-11-01T05:50:26.478Z,1.85
2023-11-01T05:52:55.673Z,0.70
2023-11-01T05:55:26.682Z,1.35
2023-11-01T05:58:01.206Z,1.10
2023-11-01T06:00:28.017Z,0.70
2023-11-01T06:02:54.921Z,2.85
2023-11-01T06:05:24.118Z,1.15
2023-11-01T06:07:51.740Z,4.53
2023-11-01T06:10:19.358Z,1.33
2023-11-01T06:12:46.306Z,1.65
2023-11-01T06:15:13.270Z,0.90
2023-11-01T06:17:40.250Z,1.70
2023-11-01T06:20:08.001Z,0.68
2023-11-01T06:22:34.824Z,0.82
2023-11-01T06:25:04.280Z,1.05
2023-11-01T06:27:31.193Z,1.23
2023-11-01T06:29:58.804Z,1.02
2023-11-01T06:32:25.593Z,0.68
2023-11-01T06:34:52.308Z,1.13
2023-11-01T06:37:18.999Z,1.17
2023-11-01T06:39:45.677Z,1.27
2023-11-01T06:42:12.426Z,1.85
2023-11-01T06:44:39.208Z,1.33
2023-11-01T06:47:06.339Z,1.27
2023-11-01T06:49:35.613Z,0.73
2023-11-01T06:52:02.486Z,0.40
2023-11-01T06:54:29.607Z,1.10
2023-11-01T06:56:57.633Z,0.93
2023-11-01T06:59:24.597Z,1.40
2023-11-01T07:01:51.343Z,0.70
2023-11-01T07:04:18.224Z,0.65
2023-11-01T07:06:44.920Z,0.90
2023-11-01T07:09:12.125Z,1.45
2023-11-01T07:11:39.139Z,1.05
2023-11-01T07:14:05.864Z,0.93
2023-11-01T07:16:32.730Z,1.77
2023-11-01T07:18:59.446Z,1.55
2023-11-01T07:21:26.213Z,2.55
2023-11-01T07:23:53.117Z,1.33
2023-11-01T07:26:19.918Z,1.15
2023-11-01T07:28:46.664Z,0.90
2023-11-01T07:31:14.852Z,0.82
2023-11-01T07:33:43.791Z,1.33
2023-11-01T07:36:11.530Z,2.92
2023-11-01T07:38:40.703Z,1.23
2023-11-01T07:41:09.146Z,1.77
2023-11-01T07:43:35.792Z,4.00
2023-11-01T07:46:02.642Z,1.73
2023-11-01T07:48:29.524Z,0.90
2023-11-01T07:50:56.267Z,1.65
2023-11-01T07:53:22.965Z,1.05
2023-11-01T07:55:52.271Z,1.65
2023-11-01T07:58:20.523Z,2.70
2023-11-01T08:00:47.186Z,0.95
2023-11-01T08:03:13.946Z,1.35
2023-11-01T08:05:40.811Z,1.33
2023-11-01T08:08:08.328Z,0.98
2023-11-01T08:10:35.141Z,1.23
2023-11-01T08:13:01.925Z,0.75
2023-11-01T08:15:28.636Z,0.47
2023-11-01T08:17:55.387Z,1.05
2023-11-01T08:20:25.879Z,1.05
2023-11-01T08:22:52.780Z,1.17
2023-11-01T08:25:21.931Z,1.25
2023-11-01T08:27:49.373Z,0.88
2023-11-01T08:30:16.605Z,0.65
2023-11-01T08:32:43.488Z,0.75
2023-11-01T08:35:11.214Z,0.68
2023-11-01T08:37:38.628Z,0.70
2023-11-01T08:40:05.875Z,0.77
2023-11-01T08:42:32.920Z,1.30
2023-11-01T08:44:59.597Z,1.00
2023-11-01T08:47:43.175Z,0.85
2023-11-01T08:50:14.776Z,0.90
2023-11-01T08:52:44.120Z,0.57
2023-11-01T08:55:14.955Z,0.50
2023-11-01T08:57:42.960Z,0.98
2023-11-01T09:00:10.499Z,0.47
2023-11-01T09:02:37.463Z,0.85
2023-11-01T09:05:04.487Z,0.82
2023-11-01T09:07:31.334Z,1.08
2023-11-01T09:10:00.471Z,1.85
2023-11-01T09:12:29.121Z,0.90
2023-11-01T09:14:55.938Z,3.92
2023-11-01T09:17:22.684Z,0.95
2023-11-01T09:19:49.380Z,0.47
2023-11-01T09:22:16.872Z,1.23
2023-11-01T09:24:44.126Z,1.05
2023-11-01T09:27:10.820Z,0.75
2023-11-01T09:29:38.070Z,1.23
2023-11-01T09:32:05.606Z,1.15
2023-11-01T09:34:33.974Z,1.27
2023-11-01T09:37:00.994Z,1.45
2023-11-01T09:39:27.757Z,1.17
2023-11-01T09:42:21.797Z,0.63
2023-11-01T09:44:53.736Z,2.05
2023-11-01T09:47:22.958Z,1.48
2023-11-01T09:49:50.931Z,1.17
2023-11-01T09:52:18.334Z,2.55
2023-11-01T09:54:45.176Z,2.38
2023-11-01T09:57:14.029Z,0.95
2023-11-01T09:59:40.830Z,2.50
2023-11-01T10:02:10.425Z,0.60
2023-11-01T10:04:40.274Z,0.65
2023-11-01T10:07:08.174Z,1.08
2023-11-01T10:09:38.143Z,1.10
2023-11-01T10:12:09.539Z,0.40
2023-11-01T10:14:37.982Z,0.60
2023-11-01T10:17:05.533Z,0.50
2023-11-01T10:19:32.704Z,0.47
2023-11-01T10:21:59.531Z,2.20
2023-11-01T10:24:26.777Z,5.78
2023-11-01T10:26:58.167Z,2.15
2023-11-01T10:29:28.599Z,1.55
2023-11-01T10:31:59.819Z,1.60
2023-11-01T10:34:30.869Z,0.90
2023-11-01T10:37:01.393Z,1.80
2023-11-01T10:39:28.336Z,0.88
2023-11-01T10:41:56.108Z,10.43
2023-11-01T10:44:24.244Z,2.15
2023-11-01T10:46:51.655Z,0.95
2023-11-01T10:49:18.445Z,1.63
2023-11-01T10:51:45.866Z,1.75
2023-11-01T10:54:13.866Z,1.40
2023-11-01T10:56:41.253Z,0.93
2023-11-01T10:59:34.322Z,3.40
2023-11-01T11:02:11.862Z,0.82
2023-11-01T11:04:48.371Z,3.47
2023-11-01T11:07:24.907Z,1.52
2023-11-01T11:10:20.963Z,0.77
2023-11-01T11:13:11.261Z,2.53
2023-11-01T11:15:47.765Z,0.98
2023-11-01T11:18:25.629Z,1.40
2023-11-01T11:20:57.082Z,2.25
2023-11-01T11:23:34.212Z,0.85
2023-11-01T11:26:03.168Z,0.60
2023-11-01T11:28:42.213Z,0.25
2023-11-01T11:31:13.676Z,0.75
2023-11-01T11:34:00.420Z,1.33
2023-11-01T11:36:28.081Z,0.50
2023-11-01T11:39:07.149Z,0.52
2023-11-01T11:41:39.901Z,1.73
2023-11-01T11:44:13.428Z,1.85
2023-11-01T11:46:41.865Z,0.40
2023-11-01T11:49:27.578Z,1.27
2023-11-01T11:51:59.766Z,0.40
2023-11-01T11:54:31.739Z,1.15
2023-11-01T11:57:01.238Z,1.83
2023-11-01T11:59:29.225Z,2.22
2023-11-01T12:02:16.659Z,0.60
2023-11-01T12:04:47.088Z,0.22
2023-11-01T12:07:19.706Z,1.77
2023-11-01T12:09:50.191Z,1.27
2023-11-01T12:12:16.992Z,2.13
2023-11-01T12:14:44.326Z,1.00
2023-11-01T12:17:11.249Z,0.25
2023-11-01T12:19:45.504Z,0.50
2023-11-01T12:22:12.223Z,1.17
2023-11-01T12:24:38.883Z,1.15
2023-11-01T12:27:06.410Z,0.73
2023-11-01T12:29:37.666Z,1.88
2023-11-01T12:32:08.322Z,1.05
2023-11-01T12:34:47.460Z,1.55
2023-11-01T12:37:16.326Z,0.40
2023-11-01T12:40:28.158Z,0.52
2023-11-01T12:43:13.619Z,0.50
2023-11-01T12:45:40.294Z,2.95
2023-11-01T12:48:07.895Z,1.05
2023-11-01T12:50:36.692Z,0.50
2023-11-01T12:53:04.161Z,0.77
2023-11-01T12:55:30.914Z,1.95
2023-11-01T12:58:00.846Z,0.45
2023-11-01T13:00:31.898Z,0.43
2023-11-01T13:02:59.204Z,3.45
2023-11-01T13:05:25.995Z,0.95
2023-11-01T13:07:56.842Z,0.40
2023-11-01T13:10:23.915Z,0.40
2023-11-01T13:12:50.695Z,1.25
2023-11-01T13:15:18.038Z,1.50
2023-11-01T13:17:45.336Z,0.63
2023-11-01T13:20:12.378Z,0.88
2023-11-01T13:22:39.028Z,3.05
2023-11-01T13:25:06.334Z,0.40
2023-11-01T13:27:33.024Z,0.57
2023-11-01T13:29:59.765Z,1.40
2023-11-01T13:32:27.014Z,0.80
2023-11-01T13:34:55.998Z,1.20
2023-11-01T13:37:22.734Z,1.77
2023-11-01T13:39:49.474Z,2.20
2023-11-01T13:42:17.157Z,1.20
2023-11-01T13:44:45.398Z,1.90
2023-11-01T13:47:12.478Z,1.20
2023-11-01T13:49:41.235Z,2.97
2023-11-01T13:52:08.577Z,1.17
2023-11-01T13:54:35.445Z,2.13
2023-11-01T13:57:04.524Z,1.00
2023-11-01T13:59:31.572Z,1.00
2023-11-01T14:02:01.393Z,0.40
2023-11-01T14:04:28.275Z,2.60
2023-11-01T14:06:55.205Z,1.10
2023-11-01T14:09:22.249Z,0.88
2023-11-01T14:11:52.773Z,1.48
2023-11-01T14:14:21.576Z,4.95
2023-11-01T14:16:48.841Z,1.10
2023-11-01T14:19:15.661Z,1.92
2023-11-01T14:21:42.796Z,1.70
2023-11-01T14:24:11.331Z,3.17
2023-11-01T14:26:39.155Z,1.38
2023-11-01T14:29:06.318Z,2.03
2023-11-01T14:31:33.467Z,2.20
2023-11-01T14:34:00.469Z,1.02
2023-11-01T14:36:27.364Z,0.85
2023-11-01T14:38:54.331Z,39.58
2023-11-01T14:41:21.124Z,3.25
2023-11-01T14:43:47.865Z,2.15
2023-11-01T14:46:14.849Z,4.30
2023-11-01T14:48:44.521Z,2.63
2023-11-01T14:51:11.582Z,1.63
2023-11-01T14:53:38.596Z,3.25
2023-11-01T14:56:16.177Z,2.00
2023-11-01T14:58:45.618Z,1.83
2023-11-01T15:01:12.469Z,1.80
2023-11-01T15:03:43.389Z,0.63
2023-11-01T15:06:10.895Z,1.65
2023-11-01T15:08:42.295Z,3.83
2023-11-01T15:11:11.382Z,2.75
2023-11-01T15:13:38.141Z,1.67
2023-11-01T15:16:05.290Z,0.65
2023-11-01T15:18:32.201Z,0.85
2023-11-01T15:20:58.932Z,2.10
2023-11-01T15:23:25.655Z,1.17
2023-11-01T15:25:52.317Z,0.88
2023-11-01T15:28:18.956Z,4.13
2023-11-01T15:30:45.676Z,2.97
2023-11-01T15:33:12.568Z,1.58
2023-11-01T15:35:39.977Z,0.85
2023-11-01T15:38:06.709Z,0.95
2023-11-01T15:40:34.443Z,0.52
2023-11-01T15:43:01.565Z,0.82
2023-11-01T15:45:28.347Z,288.48
2023-11-01T15:47:56.018Z,350.88
2023-11-01T15:50:22.911Z,358.75
2023-11-01T15:52:49.570Z,218.45
2023-11-01T15:55:16.330Z,258.98
2023-11-01T15:57:43.024Z,283.60
2023-11-01T16:00:10.689Z,73.60
2023-11-01T16:02:37.560Z,1.00
2023-11-01T16:05:04.750Z,2.55
2023-11-01T16:07:32.598Z,1.77
2023-11-01T16:09:59.637Z,0.85
2023-11-01T16:12:26.773Z,11.07
2023-11-01T16:14:53.437Z,3.97
2023-11-01T16:17:23.318Z,1.88
2023-11-01T16:19:50.082Z,3.35
2023-11-01T16:22:18.383Z,0.55
2023-11-01T16:24:45.069Z,2.80
2023-11-01T16:27:12.101Z,3.00
2023-11-01T16:29:39.094Z,8.07
2023-11-01T16:32:06.210Z,5.65
2023-11-01T16:34:33.024Z,7.90
2023-11-01T16:36:59.725Z,8.80
2023-11-01T16:39:26.448Z,5.88
2023-11-01T16:41:53.161Z,5.53
2023-11-01T16:44:19.907Z,6.53
2023-11-01T16:46:46.729Z,11.18
2023-11-01T16:49:14.852Z,13.48
2023-11-01T16:51:42.071Z,14.93
2023-11-01T16:54:09.329Z,10.18
2023-11-01T16:56:36.259Z,8.57
2023-11-01T16:59:03.114Z,4.05
2023-11-01T17:01:31.552Z,5.28
2023-11-01T17:03:58.855Z,7.80
2023-11-01T17:06:27.067Z,12.38
2023-11-01T17:08:54.279Z,13.68
2023-11-01T17:11:21.485Z,11.95
2023-11-01T17:13:48.205Z,7.82
2023-11-01T17:16:18.010Z,8.32
2023-11-01T17:18:44.765Z,6.63
2023-11-01T17:21:11.542Z,8.98
2023-11-01T17:23:44.368Z,9.02
2023-11-01T17:26:23.812Z,18.47
2023-11-01T17:28:50.648Z,22.13
2023-11-01T17:31:35.754Z,22.00
2023-11-01T17:34:03.055Z,20.45
2023-11-01T17:36:30.803Z,15.02
2023-11-01T17:38:58.990Z,10.73
2023-11-01T17:41:54.129Z,11.52
2023-11-01T17:44:25.380Z,21.30
2023-11-01T17:47:00.828Z,15.57
2023-11-01T17:49:48.973Z,13.88
2023-11-01T17:52:28.204Z,19.88
2023-11-01T17:54:55.591Z,17.33
2023-11-01T17:57:22.410Z,14.60
2023-11-01T17:59:49.509Z,12.27
2023-11-01T18:02:28.918Z,12.65
2023-11-01T18:04:57.080Z,9.93
2023-11-01T18:07:25.118Z,11.02
2023-11-01T18:09:57.225Z,10.18
2023-11-01T18:12:23.939Z,9.35
2023-11-01T18:14:52.276Z,10.07
2023-11-01T18:17:21.056Z,9.65
2023-11-01T18:19:48.433Z,8.32
2023-11-01T18:22:41.819Z,9.70
2023-11-01T18:25:33.689Z,10.23
2023-11-01T18:28:01.720Z,9.20
2023-11-01T18:30:28.471Z,11.02
2023-11-01T18:32:55.176Z,39.72
2023-11-01T18:35:25.227Z,20.30
2023-11-01T18:37:54.362Z,16.73
2023-11-01T18:40:25.381Z,9.02
2023-11-01T18:42:58.229Z,8.23
2023-11-01T18:45:25.068Z,10.48
2023-11-01T18:47:53.391Z,6.82
2023-11-01T18:50:20.317Z,6.00
2023-11-01T18:52:47.056Z,6.15
2023-11-01T18:55:24.754Z,5.85
2023-11-01T18:57:51.463Z,6.80
2023-11-01T19:00:26.549Z,6.35
2023-11-01T19:02:56.312Z,6.40
2023-11-01T19:05:23.418Z,5.90
2023-11-01T19:07:50.248Z,6.18
2023-11-01T19:10:22.158Z,8.02
2023-11-01T19:15:38.122Z,6.30
2023-11-01T19:18:14.344Z,6.63
2023-11-01T19:20:45.214Z,5.03
2023-11-01T19:23:14.490Z,6.72
2023-11-01T19:25:41.475Z,4.97
2023-11-01T19:28:08.117Z,7.45
2023-11-01T19:30:34.818Z,5.65
2023-11-01T19:33:01.628Z,7.03
2023-11-01T19:35:28.427Z,6.32
2023-11-01T19:37:55.086Z,6.15
2023-11-01T19:40:24.850Z,5.18
2023-11-01T19:42:52.675Z,6.60
2023-11-01T19:45:19.758Z,6.18
2023-11-01T19:47:47.225Z,6.43
2023-11-01T19:50:26.147Z,7.78
2023-11-01T19:52:53.932Z,5.88
2023-11-01T19:55:20.645Z,5.80
2023-11-01T19:57:48.765Z,5.07
2023-11-01T20:00:15.976Z,7.63
2023-11-01T20:02:43.455Z,4.63
2023-11-01T20:05:10.388Z,4.53
2023-11-01T20:07:39.788Z,4.55
2023-11-01T20:10:11.303Z,5.63
2023-11-01T20:12:41.084Z,9.57
2023-11-01T20:15:13.329Z,5.70
2023-11-01T20:17:40.551Z,12.05
2023-11-01T20:20:09.060Z,5.72
2023-11-01T20:22:40.488Z,4.68
2023-11-01T20:25:10.064Z,5.53
2023-11-01T20:27:37.105Z,5.55
2023-11-01T20:30:05.838Z,5.82
2023-11-01T20:32:32.580Z,4.57
2023-11-01T20:34:59.330Z,4.43
2023-11-01T20:37:25.998Z,7.57
2023-11-01T20:39:52.687Z,3.42
2023-11-01T20:42:19.538Z,4.32
2023-11-01T20:44:46.299Z,5.65
2023-11-01T20:47:12.990Z,6.60
2023-11-01T20:49:39.777Z,4.88
2023-11-01T20:52:07.001Z,5.78
2023-11-01T20:54:33.802Z,5.55
2023-11-01T20:57:02.283Z,5.53
2023-11-01T20:59:28.992Z,5.47
2023-11-01T21:01:55.838Z,9.32
2023-11-01T21:04:22.760Z,9.63
2023-11-01T21:06:49.540Z,9.98
2023-11-01T21:09:16.332Z,7.70
2023-11-01T21:11:44.148Z,22.70
2023-11-01T21:14:10.975Z,32.00
2023-11-01T21:16:37.695Z,48.20
2023-11-01T21:19:04.658Z,24.63
2023-11-01T21:21:31.685Z,22.33
2023-11-01T21:23:58.448Z,9.77
2023-11-01T21:26:25.340Z,13.13
2023-11-01T21:28:52.084Z,32.28
2023-11-01T21:31:18.978Z,20.48
2023-11-01T21:33:46.819Z,8.63
2023-11-01T21:36:13.836Z,5.93
2023-11-01T21:38:43.797Z,4.22
2023-11-01T21:41:13.440Z,3.63
2023-11-01T21:43:50.074Z,3.40
2023-11-01T21:46:22.764Z,6.03
2023-11-01T21:48:49.569Z,4.28
2023-11-01T21:51:16.383Z,4.70
2023-11-01T21:53:43.895Z,7.53
2023-11-01T21:56:10.693Z,4.68
2023-11-01T21:58:37.592Z,5.25
2023-11-01T22:01:07.465Z,6.20
2023-11-01T22:03:41.756Z,5.32
2023-11-01T22:06:28.295Z,8.38
2023-11-01T22:08:57.430Z,7.40
2023-11-01T22:11:24.370Z,8.90
2023-11-01T22:13:51.016Z,9.70
2023-11-01T22:16:44.769Z,11.10
2023-11-01T22:19:18.605Z,9.60
2023-11-01T22:24:13.158Z,8.25
2023-11-01T22:26:44.325Z,5.97
2023-11-01T22:29:18.243Z,5.50
2023-11-01T22:31:52.434Z,7.15
2023-11-01T22:34:23.434Z,5.35
2023-11-01T22:36:52.431Z,5.50
2023-11-01T22:39:42.655Z,3.80
2023-11-01T22:42:11.734Z,3.70
2023-11-01T22:44:38.883Z,3.83
2023-11-01T22:47:05.655Z,6.40
2023-11-01T22:49:32.395Z,5.00
2023-11-01T22:51:59.519Z,4.78
2023-11-01T22:54:26.261Z,4.82
2023-11-01T22:56:53.003Z,5.53
2023-11-01T22:59:19.805Z,5.00
2023-11-01T23:01:46.428Z,4.45
2023-11-01T23:04:14.417Z,5.00
2023-11-01T23:06:41.250Z,4.05
2023-11-01T23:09:08.741Z,3.38
2023-11-01T23:11:35.714Z,2.95
2023-11-01T23:14:02.976Z,4.28
2023-11-01T23:16:29.963Z,4.55
2023-11-01T23:18:56.986Z,3.70
2023-11-01T23:21:23.760Z,4.40
2023-11-01T23:23:50.572Z,4.32
2023-11-01T23:26:37.966Z,5.10
2023-11-01T23:29:14.134Z,3.90
2023-11-01T23:31:47.646Z,5.10
2023-11-01T23:34:32.072Z,4.03
2023-11-01T23:36:58.814Z,4.22
2023-11-01T23:39:38.927Z,5.65
2023-11-01T23:42:05.813Z,6.05
2023-11-01T23:44:35.755Z,10.65
2023-11-01T23:47:02.651Z,5.53
2023-11-01T23:49:58.019Z,5.63
2023-11-01T23:52:30.106Z,5.85
2023-11-01T23:54:57.422Z,3.88
2023-11-01T23:57:27.584Z,6.95
2023-11-01T23:59:58.227Z,4.30
